Time;durP1;ratioP1;P1;durP2;ratioP2;P2;SDS_P1;SDS_P2;PMS_P1;PMS_P2;Temp;Humidity;BMP_temperature;BMP_pressure;BME280_temperature;BME280_humidity;BME280_pressure;Samples;Min_cycle;Max_cycle;Signal;HPM_P1;HPM_P2
2022/02/18 00:00:48;;;;;;;17.25;7.80;;;;;;;;;;5072490;28;20036;-39
2022/02/18 00:03:14;;;;;;;18.88;8.98;;;;;;;;;;5072457;28;20021;-39
2022/02/18 00:05:41;;;;;;;14.13;7.78;;;;;;;;;;5072515;28;20025;-39
2022/02/18 00:08:07;;;;;;;16.95;9.18;;;;;;;;;;5072505;28;20034;-39
2022/02/18 00:10:32;;;;;;;15.18;7.60;;;;;;;;;;5072094;28;20576;-39
2022/02/18 00:12:58;;;;;;;15.50;8.23;;;;;;;;;;5070760;28;20029;-38
2022/02/18 00:15:24;;;;;;;14.38;7.95;;;;;;;;;;5072440;28;20025;-39
2022/02/18 00:17:49;;;;;;;15.68;7.75;;;;;;;;;;5072340;28;20033;-39
2022/02/18 00:20:15;;;;;;;20.63;9.68;;;;;;;;;;5070639;28;20032;-39
2022/02/18 00:22:41;;;;;;;14.32;6.68;;;;;;;;;;5072312;28;20035;-39
2022/02/18 00:25:08;;;;;;;13.20;7.45;;;;;;;;;;5070652;28;20059;-39
2022/02/18 00:27:35;;;;;;;10.88;7.38;;;;;;;;;;5072017;28;20033;-39
2022/02/18 00:30:01;;;;;;;14.10;8.52;;;;;;;;;;5072101;28;20024;-39
2022/02/18 00:32:27;;;;;;;11.00;6.90;;;;;;;;;;5070623;28;20107;-39
2022/02/18 00:34:52;;;;;;;17.77;9.05;;;;;;;;;;5071747;28;20100;-39
2022/02/18 00:37:18;;;;;;;17.73;7.97;;;;;;;;;;5071787;28;20033;-40
2022/02/18 00:39:44;;;;;;;16.00;8.13;;;;;;;;;;5071917;28;20079;-39
2022/02/18 00:42:10;;;;;;;18.23;8.50;;;;;;;;;;5071618;28;20040;-39
2022/02/18 00:44:35;;;;;;;17.30;9.18;;;;;;;;;;5071835;28;20062;-38
2022/02/18 00:47:01;;;;;;;17.17;8.98;;;;;;;;;;5071929;28;20040;-39
2022/02/18 00:49:26;;;;;;;15.52;7.65;;;;;;;;;;5071577;28;20024;-39
2022/02/18 00:51:52;;;;;;;14.38;8.00;;;;;;;;;;5071811;28;20025;-39
2022/02/18 00:54:17;;;;;;;14.27;7.95;;;;;;;;;;5070329;28;20028;-39
2022/02/18 00:56:42;;;;;;;13.23;7.55;;;;;;;;;;5070451;28;20032;-39
2022/02/18 00:59:08;;;;;;;16.45;8.05;;;;;;;;;;5070360;28;20055;-39
2022/02/18 01:01:34;;;;;;;15.55;7.15;;;;;;;;;;5071452;28;20033;-38
2022/02/18 01:04:00;;;;;;;14.60;8.43;;;;;;;;;;5070307;28;20102;-39
2022/02/18 01:06:26;;;;;;;11.57;7.78;;;;;;;;;;5071641;28;20044;-39
2022/02/18 01:08:52;;;;;;;17.70;9.10;;;;;;;;;;5070181;28;20020;-39
2022/02/18 01:11:17;;;;;;;20.27;9.68;;;;;;;;;;5070440;28;20067;-38
2022/02/18 01:13:43;;;;;;;12.10;6.50;;;;;;;;;;5071874;28;20439;-39
2022/02/18 01:16:08;;;;;;;11.55;6.13;;;;;;;;;;5070068;28;20029;-39
2022/02/18 01:18:34;;;;;;;13.75;6.80;;;;;;;;;;5070315;28;20070;-39
2022/02/18 01:20:59;;;;;;;16.30;8.52;;;;;;;;;;5071258;28;20072;-39
2022/02/18 01:23:25;;;;;;;12.73;7.18;;;;;;;;;;5071471;28;20025;-39
2022/02/18 01:25:50;;;;;;;16.55;7.68;;;;;;;;;;5070047;28;20032;-39
2022/02/18 01:28:16;;;;;;;21.70;8.05;;;;;;;;;;5070087;28;20020;-39
2022/02/18 01:30:42;;;;;;;18.90;8.73;;;;;;;;;;5071603;28;20037;-39
2022/02/18 01:33:07;;;;;;;17.60;8.40;;;;;;;;;;5071238;28;20370;-39
2022/02/18 01:35:33;;;;;;;19.80;9.15;;;;;;;;;;5071418;28;20143;-38
2022/02/18 01:37:59;;;;;;;13.95;6.70;;;;;;;;;;5070199;28;20112;-39
2022/02/18 01:40:24;;;;;;;13.85;8.02;;;;;;;;;;5071066;28;20036;-39
2022/02/18 01:42:50;;;;;;;14.75;8.10;;;;;;;;;;5070396;28;20039;-39
2022/02/18 01:45:16;;;;;;;13.57;7.05;;;;;;;;;;5071194;28;20049;-39
2022/02/18 01:47:41;;;;;;;18.02;7.57;;;;;;;;;;5072587;28;20016;-39
2022/02/18 01:50:07;;;;;;;15.45;7.85;;;;;;;;;;5074537;28;20056;-39
2022/02/18 01:52:34;;;;;;;16.70;7.60;;;;;;;;;;5074686;28;20056;-39
2022/02/18 01:55:00;;;;;;;13.70;7.25;;;;;;;;;;5073392;28;20039;-39
2022/02/18 01:57:25;;;;;;;15.45;7.57;;;;;;;;;;5073418;28;20378;-39
2022/02/18 01:59:51;;;;;;;14.32;7.03;;;;;;;;;;5074548;28;20135;-39
2022/02/18 02:02:17;;;;;;;12.07;7.45;;;;;;;;;;5056674;28;20032;-38
2022/02/18 02:04:44;;;;;;;16.75;7.22;;;;;;;;;;5073190;28;20029;-39
2022/02/18 02:07:11;;;;;;;16.92;7.50;;;;;;;;;;5073164;28;20023;-39
2022/02/18 02:09:37;;;;;;;16.70;7.07;;;;;;;;;;5074454;28;20040;-39
2022/02/18 02:12:03;;;;;;;13.98;7.78;;;;;;;;;;5072981;28;20039;-39
2022/02/18 02:14:34;;;;;;;16.98;6.47;;;;;;;;;;5073121;28;20029;-39
2022/02/18 02:16:59;;;;;;;16.30;6.43;;;;;;;;;;5072910;28;20111;-39
2022/02/18 02:19:25;;;;;;;16.00;8.07;;;;;;;;;;5074156;28;20421;-39
2022/02/18 02:21:53;;;;;;;14.68;6.82;;;;;;;;;;5073284;28;20032;-39
2022/02/18 02:24:19;;;;;;;12.27;6.80;;;;;;;;;;5072860;28;20021;-39
2022/02/18 02:26:46;;;;;;;14.77;7.38;;;;;;;;;;5074373;28;20419;-39
2022/02/18 02:29:12;;;;;;;14.90;7.72;;;;;;;;;;5072679;28;20063;-39
2022/02/18 02:31:39;;;;;;;17.40;7.43;;;;;;;;;;5072763;28;20029;-39
2022/02/18 02:34:05;;;;;;;20.88;7.82;;;;;;;;;;5072532;28;20020;-39
2022/02/18 02:36:35;;;;;;;20.27;8.70;;;;;;;;;;5073977;28;20036;-39
2022/02/18 02:39:02;;;;;;;17.52;8.43;;;;;;;;;;5072564;28;20078;-39
2022/02/18 02:41:28;;;;;;;16.58;8.23;;;;;;;;;;5055794;28;20028;-39
2022/02/18 02:43:53;;;;;;;10.70;7.18;;;;;;;;;;5072575;28;20020;-39
2022/02/18 02:46:19;;;;;;;16.52;7.60;;;;;;;;;;5073682;28;20074;-39
2022/02/18 02:48:44;;;;;;;15.93;7.65;;;;;;;;;;5072415;28;20108;-39
2022/02/18 02:51:30;;;;;;;14.02;7.30;;;;;;;;;;5072135;28;20040;-39
2022/02/18 02:53:57;;;;;;;17.50;8.77;;;;;;;;;;5072352;28;20532;-39
2022/02/18 02:56:23;;;;;;;11.05;6.57;;;;;;;;;;5072149;28;20366;-39
2022/02/18 02:58:49;;;;;;;13.68;5.55;;;;;;;;;;5072212;28;20103;-39
2022/02/18 03:01:20;;;;;;;22.35;7.25;;;;;;;;;;5071982;28;20059;-39
2022/02/18 03:03:48;;;;;;;15.23;7.15;;;;;;;;;;5072013;28;20020;-39
2022/02/18 03:06:14;;;;;;;17.40;8.00;;;;;;;;;;5072062;28;20111;-39
2022/02/18 03:08:40;;;;;;;16.17;7.75;;;;;;;;;;5071948;28;20032;-39
2022/02/18 03:11:14;;;;;;;12.57;6.07;;;;;;;;;;5071842;28;20021;-39
2022/02/18 03:13:46;;;;;;;14.95;7.55;;;;;;;;;;5071920;28;20024;-39
2022/02/18 03:16:12;;;;;;;15.63;7.28;;;;;;;;;;5071808;28;20025;-39
2022/02/18 03:18:38;;;;;;;14.70;6.75;;;;;;;;;;5071776;28;20025;-39
2022/02/18 03:21:05;;;;;;;10.73;6.35;;;;;;;;;;5071574;28;20035;-39
2022/02/18 03:23:30;;;;;;;16.88;6.72;;;;;;;;;;5071727;28;20025;-39
2022/02/18 03:25:56;;;;;;;15.48;8.15;;;;;;;;;;5073065;28;20489;-39
2022/02/18 03:28:25;;;;;;;14.68;8.45;;;;;;;;;;5071652;28;20029;-39
2022/02/18 03:30:51;;;;;;;19.02;7.00;;;;;;;;;;5071505;28;20052;-39
2022/02/18 03:33:17;;;;;;;13.07;6.55;;;;;;;;;;5072771;28;20027;-39
2022/02/18 03:35:44;;;;;;;14.88;6.63;;;;;;;;;;5072735;28;20167;-38
2022/02/18 03:38:11;;;;;;;14.00;7.68;;;;;;;;;;5054890;28;20078;-38
2022/02/18 03:40:41;;;;;;;15.05;6.80;;;;;;;;;;5071278;28;20540;-39
2022/02/18 03:43:12;;;;;;;13.38;7.10;;;;;;;;;;5071339;28;20039;-39
2022/02/18 03:45:58;;;;;;;13.73;7.45;;;;;;;;;;5072517;28;20036;-39
2022/02/18 03:48:30;;;;;;;15.60;7.22;;;;;;;;;;5071503;28;20032;-39
2022/02/18 03:50:57;;;;;;;12.43;6.22;;;;;;;;;;5071082;28;20056;-38
2022/02/18 03:53:24;;;;;;;14.70;7.30;;;;;;;;;;5071033;28;20025;-39
2022/02/18 03:56:10;;;;;;;18.80;6.75;;;;;;;;;;5071096;28;20028;-39
2022/02/18 03:58:38;;;;;;;12.73;6.97;;;;;;;;;;5071033;28;20056;-39
2022/02/18 04:01:04;;;;;;;15.98;7.80;;;;;;;;;;5072156;28;20490;-39
2022/02/18 04:03:29;;;;;;;15.57;7.55;;;;;;;;;;5071055;28;20078;-39
2022/02/18 04:06:15;;;;;;;13.57;7.53;;;;;;;;;;5072056;28;20048;-39
2022/02/18 04:08:45;;;;;;;13.57;6.43;;;;;;;;;;5070914;28;20029;-39
2022/02/18 04:11:22;;;;;;;13.02;7.25;;;;;;;;;;5070442;28;20031;-39
2022/02/18 04:13:49;;;;;;;11.15;7.15;;;;;;;;;;5070755;28;20035;-39
2022/02/18 04:16:14;;;;;;;10.73;6.03;;;;;;;;;;5070823;28;20021;-39
2022/02/18 04:18:41;;;;;;;14.40;6.80;;;;;;;;;;5070893;28;20122;-39
2022/02/18 04:21:06;;;;;;;14.05;6.63;;;;;;;;;;5070472;28;20499;-38
2022/02/18 04:23:57;;;;;;;18.05;7.22;;;;;;;;;;5070705;28;20040;-39
2022/02/18 04:26:23;;;;;;;13.13;6.93;;;;;;;;;;5072217;28;20116;-39
2022/02/18 04:28:49;;;;;;;11.13;7.05;;;;;;;;;;5072195;28;20087;-39
2022/02/18 04:31:14;;;;;;;15.15;7.20;;;;;;;;;;5071881;28;20063;-39
2022/02/18 04:33:42;;;;;;;12.25;6.13;;;;;;;;;;5070945;28;20381;-39
2022/02/18 04:36:08;;;;;;;10.15;6.15;;;;;;;;;;5071651;28;20021;-39
2022/02/18 04:38:34;;;;;;;18.35;6.25;;;;;;;;;;5071954;28;20703;-38
2022/02/18 04:41:00;;;;;;;19.05;6.68;;;;;;;;;;5071691;28;20123;-39
2022/02/18 04:43:26;;;;;;;13.32;6.32;;;;;;;;;;5072016;28;20056;-39
2022/02/18 04:45:52;;;;;;;20.23;7.47;;;;;;;;;;5071840;28;20028;-39
2022/02/18 04:48:18;;;;;;;13.73;7.22;;;;;;;;;;5070374;28;20020;-39
2022/02/18 04:50:44;;;;;;;10.95;5.75;;;;;;;;;;5070388;28;20119;-39
2022/02/18 04:53:09;;;;;;;14.75;6.50;;;;;;;;;;5071733;28;20666;-39
2022/02/18 04:55:37;;;;;;;14.27;6.78;;;;;;;;;;5071959;28;20460;-39
2022/02/18 04:58:03;;;;;;;12.88;7.40;;;;;;;;;;5071925;28;20027;-39
2022/02/18 05:00:29;;;;;;;16.50;6.35;;;;;;;;;;5071532;28;20044;-39
2022/02/18 05:02:54;;;;;;;11.68;6.93;;;;;;;;;;5071615;28;20059;-39
2022/02/18 05:05:20;;;;;;;12.93;6.93;;;;;;;;;;5071471;28;20056;-39
2022/02/18 05:07:46;;;;;;;13.00;7.03;;;;;;;;;;5071746;28;20013;-39
2022/02/18 05:10:11;;;;;;;10.23;6.28;;;;;;;;;;5071403;28;20028;-39
2022/02/18 05:12:37;;;;;;;12.55;5.95;;;;;;;;;;5071527;28;20024;-39
2022/02/18 05:15:03;;;;;;;10.57;6.72;;;;;;;;;;5071752;28;20390;-39
2022/02/18 05:17:28;;;;;;;10.52;6.90;;;;;;;;;;5071495;28;20056;-39
2022/02/18 05:19:54;;;;;;;14.63;6.88;;;;;;;;;;5071408;28;20479;-38
2022/02/18 05:22:20;;;;;;;19.17;6.10;;;;;;;;;;5072454;28;20062;-39
2022/02/18 05:24:45;;;;;;;18.58;7.35;;;;;;;;;;5075063;28;20463;-39
2022/02/18 05:27:11;;;;;;;15.60;7.22;;;;;;;;;;5075147;28;20104;-39
2022/02/18 05:29:36;;;;;;;13.07;7.18;;;;;;;;;;5073978;28;20021;-39
2022/02/18 05:32:02;;;;;;;11.55;6.50;;;;;;;;;;5075177;28;20450;-38
2022/02/18 05:34:27;;;;;;;14.18;7.32;;;;;;;;;;5075152;28;20037;-38
2022/02/18 05:36:53;;;;;;;12.18;6.18;;;;;;;;;;5075375;28;20024;-39
2022/02/18 05:39:19;;;;;;;12.88;6.70;;;;;;;;;;5074806;28;20031;-38
2022/02/18 05:41:45;;;;;;;12.52;6.15;;;;;;;;;;5074955;28;20036;-39
2022/02/18 05:44:10;;;;;;;11.85;5.65;;;;;;;;;;5074899;28;20032;-39
2022/02/18 05:46:36;;;;;;;15.32;6.80;;;;;;;;;;5074808;28;20052;-39
2022/02/18 05:49:02;;;;;;;20.23;7.47;;;;;;;;;;5075207;28;20104;-39
2022/02/18 05:51:27;;;;;;;13.18;6.57;;;;;;;;;;5074516;28;20060;-39
2022/02/18 05:53:53;;;;;;;10.43;6.00;;;;;;;;;;5074727;28;20466;-39
2022/02/18 05:56:19;;;;;;;15.43;7.40;;;;;;;;;;5074710;28;20033;-39
2022/02/18 05:58:46;;;;;;;14.93;8.15;;;;;;;;;;5074652;28;20474;-39
2022/02/18 06:01:12;;;;;;;10.70;6.15;;;;;;;;;;5074692;28;20127;-39
2022/02/18 06:03:37;;;;;;;11.98;6.82;;;;;;;;;;5074519;28;20450;-39
2022/02/18 06:06:03;;;;;;;9.40;6.15;;;;;;;;;;5074826;28;20028;-39
2022/02/18 06:08:29;;;;;;;14.52;6.93;;;;;;;;;;5074758;28;20116;-39
2022/02/18 06:10:55;;;;;;;14.10;6.57;;;;;;;;;;5074360;28;20052;-39
2022/02/18 06:13:20;;;;;;;15.23;6.43;;;;;;;;;;5074329;28;20071;-39
2022/02/18 06:15:46;;;;;;;18.45;6.30;;;;;;;;;;5074645;28;20028;-39
2022/02/18 06:18:11;;;;;;;16.98;7.32;;;;;;;;;;5074264;28;20059;-39
2022/02/18 06:20:37;;;;;;;12.07;5.80;;;;;;;;;;5074122;28;20055;-39
2022/02/18 06:23:03;;;;;;;14.13;6.97;;;;;;;;;;5074182;28;20024;-39
2022/02/18 06:25:29;;;;;;;13.57;6.40;;;;;;;;;;5074294;28;20029;-39
2022/02/18 06:28:07;;;;;;;13.52;6.22;;;;;;;;;;5074171;28;20025;-42
2022/02/18 06:30:34;;;;;;;13.38;6.03;;;;;;;;;;5074051;28;20029;-39
2022/02/18 06:32:59;;;;;;;13.70;6.70;;;;;;;;;;5073700;28;20021;-39
2022/02/18 06:35:25;;;;;;;12.75;6.72;;;;;;;;;;5073748;28;20032;-39
2022/02/18 06:37:50;;;;;;;13.68;7.72;;;;;;;;;;5074190;28;20053;-42
2022/02/18 06:40:18;;;;;;;13.50;6.40;;;;;;;;;;5073702;28;20033;-38
2022/02/18 06:42:43;;;;;;;13.05;6.13;;;;;;;;;;5073855;28;20031;-39
2022/02/18 06:45:09;;;;;;;14.48;6.00;;;;;;;;;;5073995;28;20028;-39
2022/02/18 06:47:34;;;;;;;14.07;7.30;;;;;;;;;;5073797;28;20024;-39
2022/02/18 06:50:00;;;;;;;19.08;9.27;;;;;;;;;;5073365;28;20398;-39
2022/02/18 06:52:25;;;;;;;13.13;6.78;;;;;;;;;;5073531;28;20064;-39
2022/02/18 06:54:52;;;;;;;11.18;6.90;;;;;;;;;;5073620;28;20039;-39
2022/02/18 06:57:18;;;;;;;15.05;6.65;;;;;;;;;;5073496;28;20013;-39
2022/02/18 06:59:43;;;;;;;14.93;6.70;;;;;;;;;;5073397;28;20039;-39
2022/02/18 07:02:09;;;;;;;16.17;6.35;;;;;;;;;;5073392;28;20028;-39
2022/02/18 07:04:35;;;;;;;10.45;6.72;;;;;;;;;;5073662;28;20035;-39
2022/02/18 07:07:00;;;;;;;11.75;5.85;;;;;;;;;;5073980;28;20554;-39
2022/02/18 07:09:25;;;;;;;16.02;6.95;;;;;;;;;;5073567;28;20028;-38
2022/02/18 07:11:51;;;;;;;12.90;6.32;;;;;;;;;;5073211;28;20470;-39
2022/02/18 07:14:17;;;;;;;12.27;6.97;;;;;;;;;;5073481;28;20032;-39
2022/02/18 07:16:44;;;;;;;12.63;6.60;;;;;;;;;;5073200;28;20027;-39
2022/02/18 07:19:10;;;;;;;11.25;6.90;;;;;;;;;;5073180;28;20029;-39
2022/02/18 07:21:37;;;;;;;10.38;5.68;;;;;;;;;;5073164;28;20055;-39
2022/02/18 07:24:04;;;;;;;10.70;6.13;;;;;;;;;;5072919;28;20024;-39
2022/02/18 07:26:30;;;;;;;10.43;6.50;;;;;;;;;;5072977;28;20043;-39
2022/02/18 07:28:56;;;;;;;12.13;6.95;;;;;;;;;;5072970;28;20028;-39
2022/02/18 07:31:24;;;;;;;13.00;7.03;;;;;;;;;;5072987;28;20067;-39
2022/02/18 07:33:50;;;;;;;19.73;7.97;;;;;;;;;;5073064;28;20060;-39
2022/02/18 07:36:16;;;;;;;16.60;8.02;;;;;;;;;;5073042;28;20494;-39
2022/02/18 07:38:41;;;;;;;16.05;6.75;;;;;;;;;;5072734;28;20082;-39
2022/02/18 07:41:08;;;;;;;12.13;6.32;;;;;;;;;;5072497;28;20067;-38
2022/02/18 07:43:33;;;;;;;12.60;6.55;;;;;;;;;;5072632;28;20071;-39
2022/02/18 07:46:02;;;;;;;14.90;8.00;;;;;;;;;;5070670;28;20044;-39
2022/02/18 07:48:27;;;;;;;15.05;7.35;;;;;;;;;;5072399;28;20033;-38
2022/02/18 07:50:53;;;;;;;12.55;6.55;;;;;;;;;;5072302;28;20052;-39
2022/02/18 07:53:18;;;;;;;11.38;5.90;;;;;;;;;;5072639;28;20036;-39
2022/02/18 07:55:44;;;;;;;12.60;6.35;;;;;;;;;;5072666;28;20094;-39
2022/02/18 07:58:09;;;;;;;12.90;7.32;;;;;;;;;;5072378;28;20025;-39
2022/02/18 08:00:36;;;;;;;14.25;7.28;;;;;;;;;;5072172;28;20462;-39
2022/02/18 08:03:03;;;;;;;14.40;5.78;;;;;;;;;;5072611;28;20028;-39
2022/02/18 08:05:28;;;;;;;13.85;6.78;;;;;;;;;;5072271;28;20013;-39
2022/02/18 08:07:56;;;;;;;10.07;5.82;;;;;;;;;;5070934;28;20543;-38
2022/02/18 08:10:22;;;;;;;18.73;7.20;;;;;;;;;;5072373;28;20059;-38
2022/02/18 08:12:48;;;;;;;13.38;6.45;;;;;;;;;;5072145;28;20059;-39
2022/02/18 08:15:14;;;;;;;9.52;7.03;;;;;;;;;;5072366;28;20036;-38
2022/02/18 08:17:40;;;;;;;16.40;7.15;;;;;;;;;;5070922;28;20480;-38
2022/02/18 08:20:06;;;;;;;13.65;6.57;;;;;;;;;;5070584;28;20069;-39
2022/02/18 08:22:32;;;;;;;10.52;6.40;;;;;;;;;;5072002;28;20036;-39
2022/02/18 08:24:57;;;;;;;10.85;6.43;;;;;;;;;;5072024;28;20020;-39
2022/02/18 08:27:23;;;;;;;18.17;7.95;;;;;;;;;;5071952;28;20032;-39
2022/02/18 08:29:48;;;;;;;11.75;5.95;;;;;;;;;;5071906;28;20044;-39
2022/02/18 08:32:14;;;;;;;12.85;6.78;;;;;;;;;;5071734;28;20036;-39
2022/02/18 08:34:40;;;;;;;10.65;5.47;;;;;;;;;;5071714;28;20040;-39
2022/02/18 08:37:08;;;;;;;13.75;5.97;;;;;;;;;;5071965;28;20463;-39
2022/02/18 08:39:34;;;;;;;14.70;8.68;;;;;;;;;;5071801;28;20016;-39
2022/02/18 08:42:00;;;;;;;13.85;6.57;;;;;;;;;;5071790;28;20409;-39
2022/02/18 08:44:25;;;;;;;16.38;6.97;;;;;;;;;;5071923;28;20021;-39
2022/02/18 08:46:51;;;;;;;10.15;5.57;;;;;;;;;;5071842;28;20028;-39
2022/02/18 08:49:16;;;;;;;17.77;7.85;;;;;;;;;;5071673;28;20016;-39
2022/02/18 08:51:43;;;;;;;13.07;7.05;;;;;;;;;;5071516;28;20075;-39
2022/02/18 08:54:08;;;;;;;9.43;5.53;;;;;;;;;;5071732;28;20056;-39
2022/02/18 08:56:34;;;;;;;11.63;5.47;;;;;;;;;;5072997;28;20032;-39
2022/02/18 08:59:01;;;;;;;12.38;6.38;;;;;;;;;;5075514;28;20455;-39
2022/02/18 09:01:27;;;;;;;13.07;5.90;;;;;;;;;;5075697;28;20032;-39
2022/02/18 09:03:53;;;;;;;9.77;5.95;;;;;;;;;;5076022;28;20032;-39
2022/02/18 09:06:19;;;;;;;13.60;6.57;;;;;;;;;;5075592;28;20024;-39
2022/02/18 09:08:44;;;;;;;7.53;4.75;;;;;;;;;;5074200;28;20019;-39
2022/02/18 09:11:10;;;;;;;13.73;6.05;;;;;;;;;;5075578;28;20067;-39
2022/02/18 09:13:36;;;;;;;11.25;7.40;;;;;;;;;;5075521;28;20070;-39
2022/02/18 09:16:02;;;;;;;10.30;6.07;;;;;;;;;;5075783;28;20036;-38
2022/02/18 09:18:39;;;;;;;15.43;8.10;;;;;;;;;;5075456;28;20017;-39
2022/02/18 09:21:07;;;;;;;9.32;5.80;;;;;;;;;;5075537;28;20047;-39
2022/02/18 09:23:33;;;;;;;14.20;6.88;;;;;;;;;;5075721;28;20017;-41
2022/02/18 09:25:58;;;;;;;13.10;6.20;;;;;;;;;;5075534;28;20370;-39
2022/02/18 09:28:25;;;;;;;11.15;5.90;;;;;;;;;;5075159;28;20016;-39
2022/02/18 09:30:51;;;;;;;13.82;7.43;;;;;;;;;;5075154;28;20748;-39
2022/02/18 09:33:17;;;;;;;11.75;6.45;;;;;;;;;;5074988;28;20458;-39
2022/02/18 09:35:43;;;;;;;14.20;9.07;;;;;;;;;;5075421;28;20048;-38
2022/02/18 09:38:09;;;;;;;8.27;4.82;;;;;;;;;;5074957;28;20473;-39
2022/02/18 09:40:35;;;;;;;11.63;5.90;;;;;;;;;;5074862;28;20041;-39
2022/02/18 09:43:00;;;;;;;14.40;6.80;;;;;;;;;;5075279;28;20029;-39
2022/02/18 09:45:27;;;;;;;14.63;8.05;;;;;;;;;;5075102;28;20035;-39
2022/02/18 09:47:52;;;;;;;13.73;6.80;;;;;;;;;;5074811;28;20031;-39
2022/02/18 09:50:18;;;;;;;13.48;6.63;;;;;;;;;;5074538;28;20127;-39
2022/02/18 09:52:44;;;;;;;14.88;7.15;;;;;;;;;;5075079;28;20032;-39
2022/02/18 09:55:10;;;;;;;6.35;4.20;;;;;;;;;;5073431;28;20043;-39
2022/02/18 09:57:36;;;;;;;12.65;6.00;;;;;;;;;;5074236;28;20111;-39
2022/02/18 10:00:08;;;;;;;7.38;4.70;;;;;;;;;;5074018;28;20505;-39
2022/02/18 10:02:40;;;;;;;8.35;4.65;;;;;;;;;;5074065;28;20043;-39
2022/02/18 10:05:06;;;;;;;10.18;4.68;;;;;;;;;;5074419;28;20028;-44
2022/02/18 10:07:32;;;;;;;7.85;4.35;;;;;;;;;;5073955;28;20067;-39
2022/02/18 10:09:58;;;;;;;6.75;4.05;;;;;;;;;;5073447;28;20056;-39
2022/02/18 10:12:38;;;;;;;10.20;4.68;;;;;;;;;;5074186;28;20024;-39
2022/02/18 10:15:09;;;;;;;11.27;5.25;;;;;;;;;;5073840;28;20051;-39
2022/02/18 10:17:36;;;;;;;11.20;4.65;;;;;;;;;;5074167;28;20476;-40
2022/02/18 10:20:23;;;;;;;10.10;5.28;;;;;;;;;;5073901;28;20356;-39
2022/02/18 10:22:56;;;;;;;11.43;4.80;;;;;;;;;;5073775;28;20386;-39
2022/02/18 10:25:23;;;;;;;14.40;4.05;;;;;;;;;;5073721;28;20479;-39
2022/02/18 10:27:49;;;;;;;7.82;4.93;;;;;;;;;;5073918;28;20512;-39
2022/02/18 10:30:26;;;;;;;10.70;5.68;;;;;;;;;;5073693;28;20028;-39
2022/02/18 10:32:56;;;;;;;13.70;4.93;;;;;;;;;;5074001;28;20063;-39
2022/02/18 10:35:34;;;;;;;9.10;4.28;;;;;;;;;;5073368;28;20032;-39
2022/02/18 10:38:00;;;;;;;13.18;6.45;;;;;;;;;;5073723;28;20506;-39
2022/02/18 10:40:26;;;;;;;8.13;5.10;;;;;;;;;;5073287;28;20029;-39
2022/02/18 10:42:52;;;;;;;10.70;4.32;;;;;;;;;;5073395;28;20509;-39
2022/02/18 10:45:19;;;;;;;7.25;3.92;;;;;;;;;;5073586;28;20063;-38
2022/02/18 10:47:45;;;;;;;7.90;4.20;;;;;;;;;;5073312;28;20440;-39
2022/02/18 10:50:15;;;;;;;10.60;4.47;;;;;;;;;;5073115;28;20036;-39
2022/02/18 10:52:41;;;;;;;17.50;5.57;;;;;;;;;;5073178;28;20422;-39
2022/02/18 10:55:07;;;;;;;7.72;4.85;;;;;;;;;;5072166;28;20029;-39
2022/02/18 10:57:32;;;;;;;6.78;4.50;;;;;;;;;;5073036;28;20368;-38
2022/02/18 11:00:10;;;;;;;8.80;4.18;;;;;;;;;;5073166;28;20027;-39
2022/02/18 11:02:50;;;;;;;6.18;4.20;;;;;;;;;;5072990;28;20554;-39
2022/02/18 11:05:22;;;;;;;7.32;3.65;;;;;;;;;;5073234;28;20029;-39
2022/02/18 11:07:48;;;;;;;6.57;4.47;;;;;;;;;;5073166;28;20032;-39
2022/02/18 11:10:32;;;;;;;15.00;5.28;;;;;;;;;;5072811;28;20032;-39
2022/02/18 11:12:58;;;;;;;7.95;4.50;;;;;;;;;;5072985;28;20097;-39
2022/02/18 11:15:24;;;;;;;4.75;3.38;;;;;;;;;;5072696;28;20020;-39
2022/02/18 11:17:50;;;;;;;9.40;4.53;;;;;;;;;;5072659;28;20035;-39
2022/02/18 11:20:17;;;;;;;7.90;4.97;;;;;;;;;;5071628;28;20040;-39
2022/02/18 11:22:44;;;;;;;6.28;4.20;;;;;;;;;;5072918;28;20059;-39
2022/02/18 11:25:11;;;;;;;7.53;4.30;;;;;;;;;;5072503;28;20048;-39
2022/02/18 11:27:37;;;;;;;6.03;3.90;;;;;;;;;;5072733;28;20025;-39
2022/02/18 11:30:03;;;;;;;4.38;3.85;;;;;;;;;;5072321;28;20052;-39
2022/02/18 11:32:30;;;;;;;8.38;4.28;;;;;;;;;;5072599;28;20032;-39
2022/02/18 11:35:05;;;;;;;7.07;4.18;;;;;;;;;;5072585;28;20017;-39
2022/02/18 11:37:43;;;;;;;7.70;4.35;;;;;;;;;;5072030;28;20031;-39
2022/02/18 11:40:15;;;;;;;8.23;3.78;;;;;;;;;;5071640;28;20123;-39
2022/02/18 11:43:10;;;;;;;9.10;5.53;;;;;;;;;;5070846;28;20060;-39
2022/02/18 11:45:35;;;;;;;8.43;3.97;;;;;;;;;;5058720;28;20033;-39
2022/02/18 11:48:01;;;;;;;7.15;3.72;;;;;;;;;;5072343;28;20016;-39
2022/02/18 11:50:29;;;;;;;7.13;3.78;;;;;;;;;;5071766;28;20127;-39
2022/02/18 11:52:55;;;;;;;7.55;3.28;;;;;;;;;;5071871;28;20036;-39
2022/02/18 11:55:26;;;;;;;8.80;4.07;;;;;;;;;;5072131;28;20036;-39
2022/02/18 11:58:03;;;;;;;5.57;3.72;;;;;;;;;;5070578;28;20391;-39
2022/02/18 12:00:50;;;;;;;7.03;3.50;;;;;;;;;;5071736;28;20115;-39
2022/02/18 12:03:23;;;;;;;5.03;3.15;;;;;;;;;;5071730;28;20048;-39
2022/02/18 12:05:48;;;;;;;;;;;;;;;;;;5072225;28;20029;-39
2022/02/18 12:08:26;;;;;;;6.85;3.20;;;;;;;;;;5071679;28;19995;-39
2022/02/18 12:10:55;;;;;;;5.20;3.30;;;;;;;;;;5071715;28;20086;-39
2022/02/18 12:13:20;;;;;;;7.70;4.57;;;;;;;;;;5071748;28;20104;-39
2022/02/18 12:15:48;;;;;;;6.07;3.70;;;;;;;;;;5071686;28;20035;-39
2022/02/18 12:18:19;;;;;;;6.30;4.15;;;;;;;;;;5071773;28;20434;-39
2022/02/18 12:20:45;;;;;;;7.25;4.13;;;;;;;;;;5071706;28;20043;-39
2022/02/18 12:23:29;;;;;;;6.32;4.57;;;;;;;;;;5071704;28;20683;-39
2022/02/18 12:26:14;;;;;;;6.40;3.30;;;;;;;;;;5071823;28;20097;-39
2022/02/18 12:28:40;;;;;;;6.13;3.63;;;;;;;;;;5071732;28;20120;-39
2022/02/18 12:31:09;;;;;;;5.22;3.30;;;;;;;;;;5071020;28;20100;-39
2022/02/18 12:33:38;;;;;;;4.63;3.35;;;;;;;;;;5071665;28;20402;-39
2022/02/18 12:36:11;;;;;;;6.78;3.83;;;;;;;;;;5071504;28;20016;-39
2022/02/18 12:38:44;;;;;;;4.78;2.90;;;;;;;;;;5071629;28;20374;-39
2022/02/18 12:41:14;;;;;;;5.85;4.25;;;;;;;;;;5071559;28;20441;-39
2022/02/18 12:43:43;;;;;;;4.68;3.25;;;;;;;;;;5071341;28;20036;-39
2022/02/18 12:46:12;;;;;;;5.90;3.60;;;;;;;;;;5071496;28;20032;-39
2022/02/18 12:48:41;;;;;;;5.50;3.47;;;;;;;;;;5071505;28;20046;-39
2022/02/18 12:51:14;;;;;;;6.82;3.83;;;;;;;;;;5071313;28;20105;-39
2022/02/18 12:53:46;;;;;;;6.28;3.05;;;;;;;;;;5071346;28;20486;-39
2022/02/18 12:56:16;;;;;;;5.45;3.28;;;;;;;;;;5071473;28;20568;-39
2022/02/18 12:58:48;;;;;;;6.97;3.47;;;;;;;;;;5071109;28;20050;-39
2022/02/18 13:01:15;;;;;;;3.78;2.60;;;;;;;;;;5070952;28;20529;-39
2022/02/18 13:03:41;;;;;;;5.30;3.22;;;;;;;;;;5071050;28;20112;-39
2022/02/18 13:06:07;;;;;;;5.88;3.42;;;;;;;;;;5071132;28;20520;-39
2022/02/18 13:08:35;;;;;;;7.80;2.78;;;;;;;;;;5071032;28;20020;-39
2022/02/18 13:11:09;;;;;;;7.53;3.65;;;;;;;;;;5071037;28;20083;-39
2022/02/18 13:13:35;;;;;;;4.88;2.47;;;;;;;;;;5071524;28;20360;-39
2022/02/18 13:16:00;;;;;;;3.50;2.50;;;;;;;;;;5070966;28;20058;-39
2022/02/18 13:18:26;;;;;;;6.13;2.88;;;;;;;;;;5071212;28;20129;-39
2022/02/18 13:20:53;;;;;;;7.90;3.70;;;;;;;;;;5070868;28;20064;-39
2022/02/18 13:23:23;;;;;;;4.65;2.80;;;;;;;;;;5070866;28;20123;-39
2022/02/18 13:25:52;;;;;;;3.83;2.78;;;;;;;;;;5071279;28;20029;-39
2022/02/18 13:28:22;;;;;;;8.35;3.00;;;;;;;;;;5071000;28;20178;-39
2022/02/18 13:30:49;;;;;;;8.38;3.33;;;;;;;;;;5069718;28;20036;-39
2022/02/18 13:33:17;;;;;;;3.97;2.47;;;;;;;;;;5071091;28;20089;-39
2022/02/18 13:35:44;;;;;;;3.85;2.85;;;;;;;;;;5070862;28;20021;-39
2022/02/18 13:38:25;;;;;;;8.82;3.80;;;;;;;;;;5069454;28;20109;-39
2022/02/18 13:41:02;;;;;;;7.72;3.08;;;;;;;;;;5070690;28;20082;-39
2022/02/18 13:43:32;;;;;;;4.57;3.00;;;;;;;;;;5071595;28;20067;-39
2022/02/18 13:46:00;;;;;;;5.70;2.88;;;;;;;;;;5074481;28;20394;-39
2022/02/18 13:48:26;;;;;;;3.55;2.35;;;;;;;;;;5074173;28;20547;-39
2022/02/18 13:50:53;;;;;;;3.95;2.58;;;;;;;;;;5074272;28;20136;-39
2022/02/18 13:53:19;;;;;;;3.33;1.70;;;;;;;;;;5074234;28;20028;-40
2022/02/18 13:55:48;;;;;;;4.43;2.10;;;;;;;;;;5074267;28;20029;-39
2022/02/18 13:58:40;;;;;;;4.15;2.60;;;;;;;;;;5074123;28;20029;-39
2022/02/18 14:01:11;;;;;;;4.97;2.40;;;;;;;;;;5071396;28;20053;-39
2022/02/18 14:03:54;;;;;;;6.40;2.63;;;;;;;;;;5074002;28;20479;-39
2022/02/18 14:06:23;;;;;;;3.72;2.10;;;;;;;;;;5074017;28;20028;-39
2022/02/18 14:08:55;;;;;;;3.40;1.75;;;;;;;;;;5073865;28;20035;-39
2022/02/18 14:11:21;;;;;;;5.10;2.83;;;;;;;;;;5073458;28;20032;-39
2022/02/18 14:13:46;;;;;;;2.65;1.52;;;;;;;;;;5073995;28;20099;-39
2022/02/18 14:16:14;;;;;;;2.53;2.03;;;;;;;;;;5073908;28;20039;-39
2022/02/18 14:18:59;;;;;;;4.15;2.05;;;;;;;;;;5073710;28;20095;-39
2022/02/18 14:21:27;;;;;;;2.00;1.70;;;;;;;;;;5073603;28;20128;-39
2022/02/18 14:23:54;;;;;;;2.85;2.05;;;;;;;;;;5073844;28;20027;-39
2022/02/18 14:26:22;;;;;;;3.15;2.38;;;;;;;;;;5073426;28;20067;-39
2022/02/18 14:28:49;;;;;;;2.28;1.80;;;;;;;;;;5073725;28;20030;-39
2022/02/18 14:31:21;;;;;;;4.40;2.45;;;;;;;;;;5073459;28;20494;-39
2022/02/18 14:34:12;;;;;;;3.07;2.27;;;;;;;;;;5072279;28;20482;-39
2022/02/18 14:36:44;;;;;;;2.13;1.92;;;;;;;;;;5073442;28;20055;-39